sensor_id;sensor_type;location;lat;lon;timestamp;P1;durP1;ratioP1;P2;durP2;ratioP2
9108;SDS011;4590;51.462;6.692;2023-02-15T00:03:54;24.83;;;14.23;;
9108;SDS011;4590;51.462;6.692;2023-02-15T00:06:19;25.63;;;14.90;;
9108;SDS011;4590;51.462;6.692;2023-02-15T00:08:45;23.92;;;14.20;;
9108;SDS011;4590;51.462;6.692;2023-02-15T00:11:12;29.97;;;16.70;;
9108;SDS011;4590;51.462;6.692;2023-02-15T00:13:39;28.13;;;15.63;;
9108;SDS011;4590;51.462;6.692;2023-02-15T00:16:10;28.15;;;14.73;;
9108;SDS011;4590;51.462;6.692;2023-02-15T00:18:37;27.50;;;14.75;;
9108;SDS011;4590;51.462;6.692;2023-02-15T00:21:07;23.40;;;14.38;;
9108;SDS011;4590;51.462;6.692;2023-02-15T00:23:34;22.75;;;13.60;;
9108;SDS011;4590;51.462;6.692;2023-02-15T00:26:03;23.67;;;14.20;;
9108;SDS011;4590;51.462;6.692;2023-02-15T00:28:32;23.10;;;13.73;;
9108;SDS011;4590;51.462;6.692;2023-02-15T00:31:10;26.87;;;14.43;;
9108;SDS011;4590;51.462;6.692;2023-02-15T00:33:37;23.80;;;13.35;;
9108;SDS011;4590;51.462;6.692;2023-02-15T00:36:04;25.10;;;15.07;;
9108;SDS011;4590;51.462;6.692;2023-02-15T00:38:31;23.17;;;14.38;;
9108;SDS011;4590;51.462;6.692;2023-02-15T00:40:57;23.17;;;14.80;;
9108;SDS011;4590;51.462;6.692;2023-02-15T00:43:25;23.50;;;13.75;;
9108;SDS011;4590;51.462;6.692;2023-02-15T00:45:51;25.85;;;15.13;;
9108;SDS011;4590;51.462;6.692;2023-02-15T00:48:17;25.43;;;15.33;;
9108;SDS011;4590;51.462;6.692;2023-02-15T00:50:46;26.55;;;13.90;;
9108;SDS011;4590;51.462;6.692;2023-02-15T00:53:14;23.83;;;14.07;;
9108;SDS011;4590;51.462;6.692;2023-02-15T00:55:39;25.93;;;15.17;;
9108;SDS011;4590;51.462;6.692;2023-02-15T00:58:05;23.48;;;13.65;;
9108;SDS011;4590;51.462;6.692;2023-02-15T01:00:31;23.42;;;14.35;;
9108;SDS011;4590;51.462;6.692;2023-02-15T01:02:56;30.30;;;15.50;;
9108;SDS011;4590;51.462;6.692;2023-02-15T01:05:22;23.57;;;14.53;;
9108;SDS011;4590;51.462;6.692;2023-02-15T01:07:47;24.87;;;14.90;;
9108;SDS011;4590;51.462;6.692;2023-02-15T01:10:12;26.23;;;15.10;;
9108;SDS011;4590;51.462;6.692;2023-02-15T01:12:38;26.30;;;15.47;;
9108;SDS011;4590;51.462;6.692;2023-02-15T01:15:03;25.83;;;14.90;;
9108;SDS011;4590;51.462;6.692;2023-02-15T01:17:28;23.77;;;14.27;;
9108;SDS011;4590;51.462;6.692;2023-02-15T01:19:54;25.17;;;14.90;;
9108;SDS011;4590;51.462;6.692;2023-02-15T01:22:19;26.23;;;15.47;;
9108;SDS011;4590;51.462;6.692;2023-02-15T01:24:44;27.43;;;15.87;;
9108;SDS011;4590;51.462;6.692;2023-02-15T01:27:10;28.27;;;15.63;;
9108;SDS011;4590;51.462;6.692;2023-02-15T01:29:35;27.50;;;15.53;;
9108;SDS011;4590;51.462;6.692;2023-02-15T01:32:01;26.83;;;15.73;;
9108;SDS011;4590;51.462;6.692;2023-02-15T01:34:26;29.20;;;16.93;;
9108;SDS011;4590;51.462;6.692;2023-02-15T01:36:51;29.93;;;16.10;;
9108;SDS011;4590;51.462;6.692;2023-02-15T01:39:17;25.60;;;14.57;;
9108;SDS011;4590;51.462;6.692;2023-02-15T01:41:42;26.50;;;15.60;;
9108;SDS011;4590;51.462;6.692;2023-02-15T01:44:40;25.63;;;15.57;;
9108;SDS011;4590;51.462;6.692;2023-02-15T01:47:17;25.77;;;14.35;;
9108;SDS011;4590;51.462;6.692;2023-02-15T01:50:00;26.10;;;15.70;;
9108;SDS011;4590;51.462;6.692;2023-02-15T01:52:31;26.58;;;15.60;;
9108;SDS011;4590;51.462;6.692;2023-02-15T01:55:01;26.25;;;15.38;;
9108;SDS011;4590;51.462;6.692;2023-02-15T01:57:27;28.30;;;16.90;;
9108;SDS011;4590;51.462;6.692;2023-02-15T01:59:56;28.60;;;16.92;;
9108;SDS011;4590;51.462;6.692;2023-02-15T02:02:25;25.85;;;15.40;;
9108;SDS011;4590;51.462;6.692;2023-02-15T02:04:53;30.45;;;16.88;;
9108;SDS011;4590;51.462;6.692;2023-02-15T02:07:22;30.13;;;17.73;;
9108;SDS011;4590;51.462;6.692;2023-02-15T02:09:51;28.33;;;16.50;;
9108;SDS011;4590;51.462;6.692;2023-02-15T02:12:17;32.23;;;17.70;;
9108;SDS011;4590;51.462;6.692;2023-02-15T02:14:43;27.00;;;15.77;;
9108;SDS011;4590;51.462;6.692;2023-02-15T02:17:17;28.65;;;17.45;;
9108;SDS011;4590;51.462;6.692;2023-02-15T02:19:54;27.33;;;16.83;;
9108;SDS011;4590;51.462;6.692;2023-02-15T02:25:23;28.42;;;16.25;;
9108;SDS011;4590;51.462;6.692;2023-02-15T02:36:31;30.80;;;16.95;;
9108;SDS011;4590;51.462;6.692;2023-02-15T02:39:07;28.83;;;17.13;;
9108;SDS011;4590;51.462;6.692;2023-02-15T02:41:50;28.23;;;16.38;;
9108;SDS011;4590;51.462;6.692;2023-02-15T02:44:44;28.27;;;16.70;;
9108;SDS011;4590;51.462;6.692;2023-02-15T02:47:22;27.60;;;16.58;;
9108;SDS011;4590;51.462;6.692;2023-02-15T02:55:29;29.27;;;15.88;;
9108;SDS011;4590;51.462;6.692;2023-02-15T03:00:44;26.70;;;16.27;;
9108;SDS011;4590;51.462;6.692;2023-02-15T03:03:32;27.38;;;16.15;;
9108;SDS011;4590;51.462;6.692;2023-02-15T03:06:02;30.30;;;16.95;;
9108;SDS011;4590;51.462;6.692;2023-02-15T03:08:36;29.20;;;17.00;;
9108;SDS011;4590;51.462;6.692;2023-02-15T03:11:05;29.20;;;15.63;;
9108;SDS011;4590;51.462;6.692;2023-02-15T03:13:31;27.23;;;15.88;;
9108;SDS011;4590;51.462;6.692;2023-02-15T03:18:44;26.58;;;15.90;;
9108;SDS011;4590;51.462;6.692;2023-02-15T03:21:17;29.63;;;15.88;;
9108;SDS011;4590;51.462;6.692;2023-02-15T03:23:48;27.52;;;16.67;;
9108;SDS011;4590;51.462;6.692;2023-02-15T03:26:17;28.13;;;15.70;;
9108;SDS011;4590;51.462;6.692;2023-02-15T03:28:45;27.92;;;16.60;;
9108;SDS011;4590;51.462;6.692;2023-02-15T03:31:14;28.48;;;16.15;;
9108;SDS011;4590;51.462;6.692;2023-02-15T03:33:43;30.65;;;16.92;;
9108;SDS011;4590;51.462;6.692;2023-02-15T03:36:17;28.65;;;16.92;;
9108;SDS011;4590;51.462;6.692;2023-02-15T03:38:57;31.45;;;17.27;;
9108;SDS011;4590;51.462;6.692;2023-02-15T03:41:32;29.65;;;16.98;;
9108;SDS011;4590;51.462;6.692;2023-02-15T03:44:06;29.67;;;17.02;;
9108;SDS011;4590;51.462;6.692;2023-02-15T03:46:42;28.23;;;15.75;;
9108;SDS011;4590;51.462;6.692;2023-02-15T03:52:07;31.02;;;17.77;;
9108;SDS011;4590;51.462;6.692;2023-02-15T03:54:35;30.17;;;17.13;;
9108;SDS011;4590;51.462;6.692;2023-02-15T03:57:09;30.35;;;17.52;;
9108;SDS011;4590;51.462;6.692;2023-02-15T03:59:56;30.83;;;17.38;;
9108;SDS011;4590;51.462;6.692;2023-02-15T04:02:49;33.05;;;18.48;;
9108;SDS011;4590;51.462;6.692;2023-02-15T04:05:29;28.95;;;17.08;;
9108;SDS011;4590;51.462;6.692;2023-02-15T04:07:54;34.10;;;18.80;;
9108;SDS011;4590;51.462;6.692;2023-02-15T04:10:20;30.50;;;17.47;;
9108;SDS011;4590;51.462;6.692;2023-02-15T04:13:04;31.98;;;18.10;;
9108;SDS011;4590;51.462;6.692;2023-02-15T04:15:29;30.00;;;17.60;;
9108;SDS011;4590;51.462;6.692;2023-02-15T04:18:13;32.13;;;17.90;;
9108;SDS011;4590;51.462;6.692;2023-02-15T04:20:38;32.90;;;18.80;;
9108;SDS011;4590;51.462;6.692;2023-02-15T04:23:22;32.00;;;17.45;;
9108;SDS011;4590;51.462;6.692;2023-02-15T04:26:06;34.35;;;18.75;;
9108;SDS011;4590;51.462;6.692;2023-02-15T04:28:31;32.33;;;18.47;;
9108;SDS011;4590;51.462;6.692;2023-02-15T04:30:57;29.93;;;17.07;;
9108;SDS011;4590;51.462;6.692;2023-02-15T04:33:22;32.05;;;17.65;;
9108;SDS011;4590;51.462;6.692;2023-02-15T04:35:48;31.50;;;18.20;;
9108;SDS011;4590;51.462;6.692;2023-02-15T04:38:13;35.03;;;18.23;;
9108;SDS011;4590;51.462;6.692;2023-02-15T04:40:38;31.23;;;17.53;;
9108;SDS011;4590;51.462;6.692;2023-02-15T04:43:03;32.37;;;18.17;;
9108;SDS011;4590;51.462;6.692;2023-02-15T04:45:29;34.60;;;17.47;;
9108;SDS011;4590;51.462;6.692;2023-02-15T04:47:54;31.00;;;17.67;;
9108;SDS011;4590;51.462;6.692;2023-02-15T04:50:19;32.30;;;18.30;;
9108;SDS011;4590;51.462;6.692;2023-02-15T04:52:44;29.20;;;17.17;;
9108;SDS011;4590;51.462;6.692;2023-02-15T04:55:10;34.07;;;18.27;;
9108;SDS011;4590;51.462;6.692;2023-02-15T04:57:35;31.10;;;17.13;;
9108;SDS011;4590;51.462;6.692;2023-02-15T05:00:00;30.60;;;17.50;;
9108;SDS011;4590;51.462;6.692;2023-02-15T05:02:26;30.83;;;17.53;;
9108;SDS011;4590;51.462;6.692;2023-02-15T05:04:51;30.97;;;17.70;;
9108;SDS011;4590;51.462;6.692;2023-02-15T05:07:16;30.77;;;17.07;;
9108;SDS011;4590;51.462;6.692;2023-02-15T05:09:42;29.75;;;16.85;;
9108;SDS011;4590;51.462;6.692;2023-02-15T05:12:08;33.03;;;17.73;;
9108;SDS011;4590;51.462;6.692;2023-02-15T05:14:33;30.73;;;16.77;;
9108;SDS011;4590;51.462;6.692;2023-02-15T05:16:58;35.40;;;17.73;;
9108;SDS011;4590;51.462;6.692;2023-02-15T05:19:26;30.55;;;17.15;;
9108;SDS011;4590;51.462;6.692;2023-02-15T05:21:51;30.47;;;17.23;;
9108;SDS011;4590;51.462;6.692;2023-02-15T05:24:17;32.43;;;18.10;;
9108;SDS011;4590;51.462;6.692;2023-02-15T05:27:01;31.33;;;18.60;;
9108;SDS011;4590;51.462;6.692;2023-02-15T05:29:44;30.45;;;17.50;;
9108;SDS011;4590;51.462;6.692;2023-02-15T05:32:12;30.37;;;17.20;;
9108;SDS011;4590;51.462;6.692;2023-02-15T05:34:38;31.58;;;16.77;;
9108;SDS011;4590;51.462;6.692;2023-02-15T05:37:03;31.83;;;18.47;;
9108;SDS011;4590;51.462;6.692;2023-02-15T05:39:28;34.07;;;18.77;;
9108;SDS011;4590;51.462;6.692;2023-02-15T05:41:54;32.53;;;17.73;;
9108;SDS011;4590;51.462;6.692;2023-02-15T05:44:19;32.57;;;17.77;;
9108;SDS011;4590;51.462;6.692;2023-02-15T05:46:44;33.50;;;18.40;;
9108;SDS011;4590;51.462;6.692;2023-02-15T05:49:09;32.77;;;17.33;;
9108;SDS011;4590;51.462;6.692;2023-02-15T05:51:35;30.13;;;16.10;;
9108;SDS011;4590;51.462;6.692;2023-02-15T05:54:00;30.07;;;17.77;;
9108;SDS011;4590;51.462;6.692;2023-02-15T05:56:25;30.30;;;16.77;;
9108;SDS011;4590;51.462;6.692;2023-02-15T05:58:52;27.67;;;16.80;;
9108;SDS011;4590;51.462;6.692;2023-02-15T06:01:18;28.42;;;16.50;;
9108;SDS011;4590;51.462;6.692;2023-02-15T06:03:44;29.40;;;16.88;;
9108;SDS011;4590;51.462;6.692;2023-02-15T06:06:10;31.70;;;16.98;;
9108;SDS011;4590;51.462;6.692;2023-02-15T06:08:36;32.83;;;18.53;;
9108;SDS011;4590;51.462;6.692;2023-02-15T06:11:02;33.80;;;18.30;;
9108;SDS011;4590;51.462;6.692;2023-02-15T06:13:28;32.92;;;16.92;;
9108;SDS011;4590;51.462;6.692;2023-02-15T06:15:54;35.60;;;19.40;;
9108;SDS011;4590;51.462;6.692;2023-02-15T06:18:19;26.67;;;14.97;;
9108;SDS011;4590;51.462;6.692;2023-02-15T06:20:48;32.70;;;17.97;;
9108;SDS011;4590;51.462;6.692;2023-02-15T06:23:13;33.03;;;18.83;;
9108;SDS011;4590;51.462;6.692;2023-02-15T06:25:39;30.90;;;18.47;;
9108;SDS011;4590;51.462;6.692;2023-02-15T06:28:04;31.33;;;17.23;;
9108;SDS011;4590;51.462;6.692;2023-02-15T06:30:29;30.83;;;17.67;;
9108;SDS011;4590;51.462;6.692;2023-02-15T06:32:54;32.97;;;16.83;;
9108;SDS011;4590;51.462;6.692;2023-02-15T06:35:20;29.17;;;16.87;;
9108;SDS011;4590;51.462;6.692;2023-02-15T06:37:47;29.58;;;17.13;;
9108;SDS011;4590;51.462;6.692;2023-02-15T06:40:12;31.00;;;17.00;;
9108;SDS011;4590;51.462;6.692;2023-02-15T06:42:38;28.13;;;16.73;;
9108;SDS011;4590;51.462;6.692;2023-02-15T06:45:03;29.70;;;16.90;;
9108;SDS011;4590;51.462;6.692;2023-02-15T06:47:29;28.83;;;16.90;;
9108;SDS011;4590;51.462;6.692;2023-02-15T06:49:54;28.17;;;16.70;;
9108;SDS011;4590;51.462;6.692;2023-02-15T06:52:20;30.53;;;17.17;;
9108;SDS011;4590;51.462;6.692;2023-02-15T06:54:45;29.83;;;15.70;;
9108;SDS011;4590;51.462;6.692;2023-02-15T06:57:10;30.43;;;16.03;;
9108;SDS011;4590;51.462;6.692;2023-02-15T06:59:35;33.20;;;16.53;;
9108;SDS011;4590;51.462;6.692;2023-02-15T07:02:01;30.87;;;17.13;;
9108;SDS011;4590;51.462;6.692;2023-02-15T07:04:26;30.93;;;17.27;;
9108;SDS011;4590;51.462;6.692;2023-02-15T07:06:53;32.15;;;18.05;;
9108;SDS011;4590;51.462;6.692;2023-02-15T07:09:18;30.73;;;16.83;;
9108;SDS011;4590;51.462;6.692;2023-02-15T07:11:44;31.57;;;16.47;;
9108;SDS011;4590;51.462;6.692;2023-02-15T07:14:27;32.13;;;16.67;;
9108;SDS011;4590;51.462;6.692;2023-02-15T07:16:53;30.33;;;17.40;;
9108;SDS011;4590;51.462;6.692;2023-02-15T07:19:18;32.17;;;17.57;;
9108;SDS011;4590;51.462;6.692;2023-02-15T07:21:43;33.57;;;18.30;;
9108;SDS011;4590;51.462;6.692;2023-02-15T07:24:10;32.78;;;17.63;;
9108;SDS011;4590;51.462;6.692;2023-02-15T07:26:35;34.93;;;17.87;;
9108;SDS011;4590;51.462;6.692;2023-02-15T07:29:01;32.53;;;17.10;;
9108;SDS011;4590;51.462;6.692;2023-02-15T07:31:26;35.17;;;18.87;;
9108;SDS011;4590;51.462;6.692;2023-02-15T07:33:51;30.73;;;17.27;;
9108;SDS011;4590;51.462;6.692;2023-02-15T07:36:16;31.73;;;17.27;;
9108;SDS011;4590;51.462;6.692;2023-02-15T07:38:42;37.17;;;18.53;;
9108;SDS011;4590;51.462;6.692;2023-02-15T07:41:11;34.53;;;18.00;;
9108;SDS011;4590;51.462;6.692;2023-02-15T07:43:39;32.78;;;18.25;;
9108;SDS011;4590;51.462;6.692;2023-02-15T07:46:07;30.95;;;17.60;;
9108;SDS011;4590;51.462;6.692;2023-02-15T07:48:35;34.92;;;18.38;;
9108;SDS011;4590;51.462;6.692;2023-02-15T07:51:04;30.00;;;16.13;;
9108;SDS011;4590;51.462;6.692;2023-02-15T07:53:31;28.75;;;16.30;;
9108;SDS011;4590;51.462;6.692;2023-02-15T07:56:01;30.40;;;16.52;;
9108;SDS011;4590;51.462;6.692;2023-02-15T07:58:28;28.23;;;15.45;;
9108;SDS011;4590;51.462;6.692;2023-02-15T08:01:12;26.92;;;14.40;;
9108;SDS011;4590;51.462;6.692;2023-02-15T08:03:38;27.63;;;16.20;;
9108;SDS011;4590;51.462;6.692;2023-02-15T08:06:04;32.30;;;16.70;;
9108;SDS011;4590;51.462;6.692;2023-02-15T08:08:29;28.67;;;16.33;;
9108;SDS011;4590;51.462;6.692;2023-02-15T08:10:58;26.17;;;13.20;;
9108;SDS011;4590;51.462;6.692;2023-02-15T08:13:46;26.63;;;15.38;;
9108;SDS011;4590;51.462;6.692;2023-02-15T08:16:26;26.30;;;15.02;;
9108;SDS011;4590;51.462;6.692;2023-02-15T08:18:58;24.77;;;14.35;;
9108;SDS011;4590;51.462;6.692;2023-02-15T08:21:26;25.25;;;14.88;;
9108;SDS011;4590;51.462;6.692;2023-02-15T08:23:53;26.02;;;14.85;;
9108;SDS011;4590;51.462;6.692;2023-02-15T08:26:20;26.20;;;15.70;;
9108;SDS011;4590;51.462;6.692;2023-02-15T08:28:45;27.27;;;15.50;;
9108;SDS011;4590;51.462;6.692;2023-02-15T08:31:11;27.00;;;14.27;;
9108;SDS011;4590;51.462;6.692;2023-02-15T08:33:39;28.83;;;15.98;;
9108;SDS011;4590;51.462;6.692;2023-02-15T08:36:06;27.10;;;14.98;;
9108;SDS011;4590;51.462;6.692;2023-02-15T08:38:36;24.38;;;15.18;;
9108;SDS011;4590;51.462;6.692;2023-02-15T08:41:21;27.27;;;15.77;;
9108;SDS011;4590;51.462;6.692;2023-02-15T08:43:52;24.55;;;14.25;;
9108;SDS011;4590;51.462;6.692;2023-02-15T08:46:19;24.20;;;14.05;;
9108;SDS011;4590;51.462;6.692;2023-02-15T08:48:46;23.55;;;14.10;;
9108;SDS011;4590;51.462;6.692;2023-02-15T08:51:13;21.85;;;13.35;;
9108;SDS011;4590;51.462;6.692;2023-02-15T08:53:41;24.27;;;13.70;;
9108;SDS011;4590;51.462;6.692;2023-02-15T08:56:08;23.40;;;14.32;;
9108;SDS011;4590;51.462;6.692;2023-02-15T09:01:00;24.08;;;13.63;;
9108;SDS011;4590;51.462;6.692;2023-02-15T09:03:29;20.55;;;11.55;;
9108;SDS011;4590;51.462;6.692;2023-02-15T09:05:58;20.93;;;12.90;;
9108;SDS011;4590;51.462;6.692;2023-02-15T09:08:25;24.83;;;14.32;;
9108;SDS011;4590;51.462;6.692;2023-02-15T09:10:50;20.80;;;12.13;;
9108;SDS011;4590;51.462;6.692;2023-02-15T09:13:16;27.97;;;14.97;;
9108;SDS011;4590;51.462;6.692;2023-02-15T09:15:41;23.73;;;13.90;;
9108;SDS011;4590;51.462;6.692;2023-02-15T09:18:06;23.23;;;13.33;;
9108;SDS011;4590;51.462;6.692;2023-02-15T09:20:35;19.58;;;11.02;;
9108;SDS011;4590;51.462;6.692;2023-02-15T09:23:00;21.08;;;12.95;;
9108;SDS011;4590;51.462;6.692;2023-02-15T09:25:26;21.30;;;13.17;;
9108;SDS011;4590;51.462;6.692;2023-02-15T09:27:52;20.67;;;12.07;;
9108;SDS011;4590;51.462;6.692;2023-02-15T09:30:17;22.07;;;13.20;;
9108;SDS011;4590;51.462;6.692;2023-02-15T09:32:43;20.47;;;12.50;;
9108;SDS011;4590;51.462;6.692;2023-02-15T09:35:09;22.80;;;13.05;;
9108;SDS011;4590;51.462;6.692;2023-02-15T09:37:34;23.60;;;13.00;;
9108;SDS011;4590;51.462;6.692;2023-02-15T09:39:59;30.50;;;15.87;;
9108;SDS011;4590;51.462;6.692;2023-02-15T09:48:45;24.90;;;14.55;;
9108;SDS011;4590;51.462;6.692;2023-02-15T09:51:05;24.45;;;14.88;;
9108;SDS011;4590;51.462;6.692;2023-02-15T09:53:42;26.15;;;15.18;;
9108;SDS011;4590;51.462;6.692;2023-02-15T09:59:11;28.52;;;14.70;;
9108;SDS011;4590;51.462;6.692;2023-02-15T10:01:54;25.73;;;13.48;;
9108;SDS011;4590;51.462;6.692;2023-02-15T10:07:49;22.20;;;12.27;;
9108;SDS011;4590;51.462;6.692;2023-02-15T10:10:37;22.23;;;12.27;;
9108;SDS011;4590;51.462;6.692;2023-02-15T10:16:20;27.17;;;14.30;;
9108;SDS011;4590;51.462;6.692;2023-02-15T10:19:20;22.67;;;13.13;;
9108;SDS011;4590;51.462;6.692;2023-02-15T10:22:04;23.73;;;12.55;;
9108;SDS011;4590;51.462;6.692;2023-02-15T10:24:40;23.40;;;12.50;;
9108;SDS011;4590;51.462;6.692;2023-02-15T10:32:27;19.10;;;11.80;;
9108;SDS011;4590;51.462;6.692;2023-02-15T10:35:00;19.67;;;11.15;;
9108;SDS011;4590;51.462;6.692;2023-02-15T10:43:20;18.25;;;12.05;;
9108;SDS011;4590;51.462;6.692;2023-02-15T10:46:23;17.55;;;11.48;;
9108;SDS011;4590;51.462;6.692;2023-02-15T10:54:18;17.92;;;11.73;;
9108;SDS011;4590;51.462;6.692;2023-02-15T10:59:31;19.35;;;11.05;;
9108;SDS011;4590;51.462;6.692;2023-02-15T11:02:26;17.40;;;11.50;;
9108;SDS011;4590;51.462;6.692;2023-02-15T11:04:59;23.58;;;11.13;;
9108;SDS011;4590;51.462;6.692;2023-02-15T11:07:37;16.27;;;10.45;;
9108;SDS011;4590;51.462;6.692;2023-02-15T11:12:56;18.10;;;10.82;;
9108;SDS011;4590;51.462;6.692;2023-02-15T11:15:29;17.48;;;10.68;;
9108;SDS011;4590;51.462;6.692;2023-02-15T11:18:13;19.13;;;11.55;;
9108;SDS011;4590;51.462;6.692;2023-02-15T11:20:52;18.67;;;10.43;;
9108;SDS011;4590;51.462;6.692;2023-02-15T11:23:21;17.02;;;10.98;;
9108;SDS011;4590;51.462;6.692;2023-02-15T11:25:54;18.35;;;11.70;;
9108;SDS011;4590;51.462;6.692;2023-02-15T11:28:24;17.52;;;11.02;;
9108;SDS011;4590;51.462;6.692;2023-02-15T11:30:56;16.70;;;10.48;;
9108;SDS011;4590;51.462;6.692;2023-02-15T11:33:27;16.83;;;10.27;;
9108;SDS011;4590;51.462;6.692;2023-02-15T11:35:58;17.20;;;9.63;;
9108;SDS011;4590;51.462;6.692;2023-02-15T11:38:29;15.43;;;9.82;;
9108;SDS011;4590;51.462;6.692;2023-02-15T11:40:59;16.88;;;9.63;;
9108;SDS011;4590;51.462;6.692;2023-02-15T11:43:38;17.13;;;10.00;;
9108;SDS011;4590;51.462;6.692;2023-02-15T11:46:04;19.35;;;10.20;;
9108;SDS011;4590;51.462;6.692;2023-02-15T11:48:30;15.98;;;9.82;;
9108;SDS011;4590;51.462;6.692;2023-02-15T11:50:57;15.20;;;9.57;;
9108;SDS011;4590;51.462;6.692;2023-02-15T11:53:23;15.85;;;9.55;;
9108;SDS011;4590;51.462;6.692;2023-02-15T11:55:52;15.88;;;9.98;;
9108;SDS011;4590;51.462;6.692;2023-02-15T11:58:39;16.05;;;9.85;;
9108;SDS011;4590;51.462;6.692;2023-02-15T12:04:07;20.98;;;12.38;;
9108;SDS011;4590;51.462;6.692;2023-02-15T12:11:50;22.80;;;12.23;;
9108;SDS011;4590;51.462;6.692;2023-02-15T12:14:15;28.03;;;14.90;;
9108;SDS011;4590;51.462;6.692;2023-02-15T12:16:50;25.00;;;13.50;;
9108;SDS011;4590;51.462;6.692;2023-02-15T12:19:24;28.02;;;13.98;;
9108;SDS011;4590;51.462;6.692;2023-02-15T12:21:51;31.17;;;15.18;;
9108;SDS011;4590;51.462;6.692;2023-02-15T12:26:58;28.90;;;14.18;;
9108;SDS011;4590;51.462;6.692;2023-02-15T12:29:27;26.58;;;13.32;;
9108;SDS011;4590;51.462;6.692;2023-02-15T12:31:56;28.70;;;13.65;;
9108;SDS011;4590;51.462;6.692;2023-02-15T12:34:23;26.20;;;12.23;;
9108;SDS011;4590;51.462;6.692;2023-02-15T12:36:54;26.77;;;14.15;;
9108;SDS011;4590;51.462;6.692;2023-02-15T12:39:24;30.00;;;14.57;;
9108;SDS011;4590;51.462;6.692;2023-02-15T12:44:24;28.88;;;13.00;;
9108;SDS011;4590;51.462;6.692;2023-02-15T12:47:01;30.00;;;14.10;;
9108;SDS011;4590;51.462;6.692;2023-02-15T12:49:41;25.95;;;13.50;;
9108;SDS011;4590;51.462;6.692;2023-02-15T12:54:48;28.95;;;14.02;;
9108;SDS011;4590;51.462;6.692;2023-02-15T12:59:56;23.77;;;12.88;;
9108;SDS011;4590;51.462;6.692;2023-02-15T13:02:30;23.60;;;12.07;;
9108;SDS011;4590;51.462;6.692;2023-02-15T13:05:19;24.13;;;11.35;;
9108;SDS011;4590;51.462;6.692;2023-02-15T13:07:53;22.77;;;12.77;;
9108;SDS011;4590;51.462;6.692;2023-02-15T13:10:29;26.33;;;14.82;;
9108;SDS011;4590;51.462;6.692;2023-02-15T13:12:58;21.83;;;12.77;;
9108;SDS011;4590;51.462;6.692;2023-02-15T13:15:25;23.00;;;11.20;;
9108;SDS011;4590;51.462;6.692;2023-02-15T13:18:01;25.35;;;12.73;;
9108;SDS011;4590;51.462;6.692;2023-02-15T13:20:29;21.60;;;11.98;;
9108;SDS011;4590;51.462;6.692;2023-02-15T13:22:58;24.38;;;11.68;;
9108;SDS011;4590;51.462;6.692;2023-02-15T13:25:28;20.58;;;11.65;;
9108;SDS011;4590;51.462;6.692;2023-02-15T13:28:03;21.95;;;11.38;;
9108;SDS011;4590;51.462;6.692;2023-02-15T13:30:31;21.88;;;11.57;;
9108;SDS011;4590;51.462;6.692;2023-02-15T13:33:04;20.23;;;10.77;;
9108;SDS011;4590;51.462;6.692;2023-02-15T13:35:40;20.65;;;11.10;;
9108;SDS011;4590;51.462;6.692;2023-02-15T13:38:15;18.75;;;10.73;;
9108;SDS011;4590;51.462;6.692;2023-02-15T13:41:01;19.27;;;10.32;;
9108;SDS011;4590;51.462;6.692;2023-02-15T13:46:48;19.35;;;10.73;;
9108;SDS011;4590;51.462;6.692;2023-02-15T13:49:56;21.33;;;10.55;;
9108;SDS011;4590;51.462;6.692;2023-02-15T13:52:39;21.02;;;10.65;;
9108;SDS011;4590;51.462;6.692;2023-02-15T13:58:13;15.43;;;9.23;;
9108;SDS011;4590;51.462;6.692;2023-02-15T14:00:43;16.15;;;8.95;;
9108;SDS011;4590;51.462;6.692;2023-02-15T14:14:49;16.10;;;9.23;;
9108;SDS011;4590;51.462;6.692;2023-02-15T14:17:40;15.30;;;8.32;;
9108;SDS011;4590;51.462;6.692;2023-02-15T14:20:32;18.45;;;8.90;;
9108;SDS011;4590;51.462;6.692;2023-02-15T14:29:07;15.38;;;8.20;;
9108;SDS011;4590;51.462;6.692;2023-02-15T14:31:57;18.23;;;10.68;;
9108;SDS011;4590;51.462;6.692;2023-02-15T14:34:30;18.42;;;8.82;;
9108;SDS011;4590;51.462;6.692;2023-02-15T14:37:02;18.95;;;8.60;;
9108;SDS011;4590;51.462;6.692;2023-02-15T14:39:36;16.70;;;8.80;;
9108;SDS011;4590;51.462;6.692;2023-02-15T14:45:15;15.15;;;8.30;;
9108;SDS011;4590;51.462;6.692;2023-02-15T14:50:58;15.30;;;8.77;;
9108;SDS011;4590;51.462;6.692;2023-02-15T14:58:38;15.13;;;8.07;;
9108;SDS011;4590;51.462;6.692;2023-02-15T15:03:59;14.57;;;7.60;;
9108;SDS011;4590;51.462;6.692;2023-02-15T15:06:29;17.65;;;8.55;;
9108;SDS011;4590;51.462;6.692;2023-02-15T15:09:10;17.05;;;8.50;;
9108;SDS011;4590;51.462;6.692;2023-02-15T15:11:37;15.52;;;8.73;;
9108;SDS011;4590;51.462;6.692;2023-02-15T15:14:04;17.52;;;10.35;;
9108;SDS011;4590;51.462;6.692;2023-02-15T15:19:07;17.92;;;8.85;;
9108;SDS011;4590;51.462;6.692;2023-02-15T15:33:03;16.50;;;8.18;;
9108;SDS011;4590;51.462;6.692;2023-02-15T15:41:16;52.05;;;27.05;;
9108;SDS011;4590;51.462;6.692;2023-02-15T15:46:45;31.35;;;16.92;;
9108;SDS011;4590;51.462;6.692;2023-02-15T15:49:34;34.03;;;18.92;;
9108;SDS011;4590;51.462;6.692;2023-02-15T15:52:07;24.08;;;13.63;;
9108;SDS011;4590;51.462;6.692;2023-02-15T15:54:38;26.50;;;15.48;;
9108;SDS011;4590;51.462;6.692;2023-02-15T15:57:06;22.20;;;13.15;;
9108;SDS011;4590;51.462;6.692;2023-02-15T15:59:43;18.77;;;10.30;;
9108;SDS011;4590;51.462;6.692;2023-02-15T16:02:11;23.17;;;12.77;;
9108;SDS011;4590;51.462;6.692;2023-02-15T16:04:43;16.83;;;10.48;;
9108;SDS011;4590;51.462;6.692;2023-02-15T16:12:46;18.90;;;11.70;;
9108;SDS011;4590;51.462;6.692;2023-02-15T16:15:23;16.13;;;10.57;;
9108;SDS011;4590;51.462;6.692;2023-02-15T16:17:51;18.98;;;10.73;;
9108;SDS011;4590;51.462;6.692;2023-02-15T16:20:21;17.83;;;11.10;;
9108;SDS011;4590;51.462;6.692;2023-02-15T16:22:49;19.13;;;10.80;;
9108;SDS011;4590;51.462;6.692;2023-02-15T16:28:07;14.80;;;8.77;;
9108;SDS011;4590;51.462;6.692;2023-02-15T16:30:36;14.93;;;9.98;;
9108;SDS011;4590;51.462;6.692;2023-02-15T16:33:15;15.75;;;8.98;;
9108;SDS011;4590;51.462;6.692;2023-02-15T16:35:52;14.60;;;9.18;;
9108;SDS011;4590;51.462;6.692;2023-02-15T16:38:30;14.82;;;8.02;;
9108;SDS011;4590;51.462;6.692;2023-02-15T16:40:59;16.50;;;8.48;;
9108;SDS011;4590;51.462;6.692;2023-02-15T16:45:56;13.88;;;8.20;;
9108;SDS011;4590;51.462;6.692;2023-02-15T16:48:29;14.07;;;9.02;;
9108;SDS011;4590;51.462;6.692;2023-02-15T16:53:28;15.15;;;8.80;;
9108;SDS011;4590;51.462;6.692;2023-02-15T16:55:55;16.33;;;9.90;;
9108;SDS011;4590;51.462;6.692;2023-02-15T17:00:58;16.42;;;10.55;;
9108;SDS011;4590;51.462;6.692;2023-02-15T17:03:26;17.70;;;11.18;;
9108;SDS011;4590;51.462;6.692;2023-02-15T17:05:55;15.27;;;9.90;;
9108;SDS011;4590;51.462;6.692;2023-02-15T17:08:32;17.10;;;10.70;;
9108;SDS011;4590;51.462;6.692;2023-02-15T17:13:34;17.50;;;10.30;;
9108;SDS011;4590;51.462;6.692;2023-02-15T17:18:25;15.97;;;10.17;;
9108;SDS011;4590;51.462;6.692;2023-02-15T17:20:54;21.55;;;12.10;;
9108;SDS011;4590;51.462;6.692;2023-02-15T17:23:27;20.02;;;11.85;;
9108;SDS011;4590;51.462;6.692;2023-02-15T17:25:58;26.48;;;16.15;;
9108;SDS011;4590;51.462;6.692;2023-02-15T17:28:30;21.95;;;12.43;;
9108;SDS011;4590;51.462;6.692;2023-02-15T17:30:56;20.80;;;13.13;;
9108;SDS011;4590;51.462;6.692;2023-02-15T17:36:04;20.90;;;11.82;;
9108;SDS011;4590;51.462;6.692;2023-02-15T17:38:38;21.35;;;11.73;;
9108;SDS011;4590;51.462;6.692;2023-02-15T17:41:05;22.60;;;11.10;;
9108;SDS011;4590;51.462;6.692;2023-02-15T17:43:32;21.70;;;12.27;;
9108;SDS011;4590;51.462;6.692;2023-02-15T17:45:57;23.50;;;11.77;;
9108;SDS011;4590;51.462;6.692;2023-02-15T17:48:28;21.42;;;11.68;;
9108;SDS011;4590;51.462;6.692;2023-02-15T17:53:26;22.42;;;11.05;;
9108;SDS011;4590;51.462;6.692;2023-02-15T17:55:52;21.23;;;12.55;;
9108;SDS011;4590;51.462;6.692;2023-02-15T17:58:18;19.97;;;12.13;;
9108;SDS011;4590;51.462;6.692;2023-02-15T18:00:45;21.30;;;11.73;;